createdAt,value
2019-01-17T00:01:21.485Z,80.03
2019-01-17T00:03:51.916Z,80.95
2019-01-17T00:06:23.069Z,81.39
2019-01-17T00:08:56.926Z,81.93
2019-01-17T00:11:31.030Z,82.27
2019-01-17T00:14:20.372Z,82.51
2019-01-17T00:17:09.875Z,82.40
2019-01-17T00:19:47.374Z,82.21
2019-01-17T00:22:22.009Z,82.28
2019-01-17T00:25:09.905Z,82.29
2019-01-17T00:27:45.083Z,82.69
2019-01-17T00:30:32.398Z,83.01
2019-01-17T00:33:07.628Z,83.03
2019-01-17T00:35:50.854Z,82.99
2019-01-17T00:38:38.380Z,83.04
2019-01-17T00:41:11.754Z,83.32
2019-01-17T00:43:59.353Z,83.58
2019-01-17T00:46:31.165Z,83.67
2019-01-17T00:49:11.107Z,83.80
2019-01-17T00:51:40.846Z,83.93
2019-01-17T00:54:27.813Z,84.08
2019-01-17T00:57:00.120Z,84.19
2019-01-17T00:59:37.519Z,84.17
2019-01-17T01:02:11.141Z,84.37
2019-01-17T01:04:45.712Z,84.13
2019-01-17T01:07:29.762Z,84.12
2019-01-17T01:10:01.503Z,84.34
2019-01-17T01:12:41.512Z,84.40
2019-01-17T01:15:17.478Z,84.46
2019-01-17T01:18:01.238Z,84.44
2019-01-17T01:20:44.570Z,84.62
2019-01-17T01:23:22.512Z,84.46
2019-01-17T01:25:54.047Z,84.51
2019-01-17T01:28:25.531Z,84.47
2019-01-17T01:31:05.717Z,85.03
2019-01-17T01:33:38.361Z,84.93
2019-01-17T01:36:26.142Z,85.01
2019-01-17T01:39:03.662Z,85.15
2019-01-17T01:41:50.425Z,85.18
2019-01-17T01:44:30.816Z,85.22
2019-01-17T01:47:18.615Z,85.32
2019-01-17T01:49:49.747Z,85.15
2019-01-17T01:52:21.390Z,85.12
2019-01-17T01:54:51.747Z,85.22
2019-01-17T01:57:21.334Z,85.35
2019-01-17T01:59:51.132Z,85.26
2019-01-17T02:02:21.486Z,85.09
2019-01-17T02:04:51.354Z,84.91
2019-01-17T02:07:21.357Z,84.90
2019-01-17T02:09:50.883Z,84.93
2019-01-17T02:12:20.941Z,85.16
2019-01-17T02:14:50.505Z,85.13
2019-01-17T02:17:20.394Z,85.01
2019-01-17T02:19:50.331Z,85.02
2019-01-17T02:22:20.299Z,85.08
2019-01-17T02:24:50.243Z,85.35
2019-01-17T02:27:20.178Z,85.10
2019-01-17T02:29:50.256Z,85.05
2019-01-17T02:32:19.895Z,85.19
2019-01-17T02:34:49.474Z,85.08
2019-01-17T02:37:20.142Z,85.22
2019-01-17T02:39:49.640Z,85.08
2019-01-17T02:42:19.167Z,85.09
2019-01-17T02:44:49.014Z,85.10
2019-01-17T02:47:18.760Z,85.35
2019-01-17T02:49:48.788Z,85.21
2019-01-17T02:52:18.753Z,85.35
2019-01-17T02:54:49.146Z,85.42
2019-01-17T02:57:18.704Z,85.38
2019-01-17T02:59:48.487Z,85.24
2019-01-17T03:02:18.572Z,85.11
2019-01-17T03:04:48.141Z,84.94
2019-01-17T03:07:17.940Z,84.90
2019-01-17T03:09:47.857Z,84.78
2019-01-17T03:12:17.981Z,84.94
2019-01-17T03:14:47.860Z,84.91
2019-01-17T03:17:17.450Z,84.86
2019-01-17T03:19:48.158Z,85.06
2019-01-17T03:22:18.090Z,85.08
2019-01-17T03:24:47.638Z,85.07
2019-01-17T03:27:17.190Z,85.04
2019-01-17T03:29:47.042Z,84.94
2019-01-17T03:32:17.270Z,84.91
2019-01-17T03:34:47.274Z,85.01
2019-01-17T03:37:17.162Z,85.01
2019-01-17T03:39:46.672Z,84.94
2019-01-17T03:42:16.507Z,85.01
2019-01-17T03:44:46.075Z,84.98
2019-01-17T03:47:16.862Z,84.93
2019-01-17T03:49:46.711Z,84.84
2019-01-17T03:52:16.287Z,84.87
2019-01-17T03:54:51.247Z,84.83
2019-01-17T03:57:17.468Z,84.99
2019-01-17T03:59:47.392Z,85.00
2019-01-17T04:02:17.246Z,84.98
2019-01-17T04:04:47.226Z,84.81
2019-01-17T04:07:17.129Z,84.91
2019-01-17T04:09:46.636Z,84.82
2019-01-17T04:12:16.153Z,85.05
2019-01-17T04:14:45.939Z,85.02
2019-01-17T04:17:15.781Z,84.96
2019-01-17T04:19:45.290Z,84.99
2019-01-17T04:22:14.821Z,85.07
2019-01-17T04:24:44.675Z,85.19
2019-01-17T04:27:15.388Z,85.13
2019-01-17T04:29:44.900Z,85.00
2019-01-17T04:32:16.730Z,85.04
2019-01-17T04:34:46.854Z,85.06
2019-01-17T04:37:16.947Z,85.05
2019-01-17T04:39:46.510Z,85.05
2019-01-17T04:42:16.608Z,85.06
2019-01-17T04:44:46.133Z,84.86
2019-01-17T04:47:15.681Z,84.82
2019-01-17T04:49:45.669Z,84.56
2019-01-17T04:52:17.635Z,84.55
2019-01-17T04:54:47.493Z,84.54
2019-01-17T04:57:17.008Z,84.60
2019-01-17T04:59:46.596Z,84.49
2019-01-17T05:02:16.953Z,84.31
2019-01-17T05:04:46.674Z,84.13
2019-01-17T05:07:16.272Z,84.14
2019-01-17T05:09:46.337Z,84.13
2019-01-17T05:12:16.362Z,84.17
2019-01-17T05:14:46.153Z,83.99
2019-01-17T05:17:15.647Z,84.05
2019-01-17T05:19:45.405Z,83.93
2019-01-17T05:22:14.984Z,83.92
2019-01-17T05:24:44.502Z,83.95
2019-01-17T05:27:14.450Z,83.86
2019-01-17T05:29:44.011Z,83.80
2019-01-17T05:32:13.840Z,83.70
2019-01-17T05:34:43.475Z,83.71
2019-01-17T05:37:13.104Z,83.79
2019-01-17T05:39:42.759Z,83.79
2019-01-17T05:42:12.669Z,83.75
2019-01-17T05:44:42.505Z,83.61
2019-01-17T05:47:12.410Z,83.54
2019-01-17T05:49:42.810Z,83.60
2019-01-17T05:52:12.379Z,83.58
2019-01-17T05:54:42.414Z,83.63
2019-01-17T05:57:11.969Z,83.71
2019-01-17T05:59:44.078Z,83.73
2019-01-17T06:02:14.326Z,83.78
2019-01-17T06:04:44.191Z,83.68
2019-01-17T06:07:15.024Z,83.69
2019-01-17T06:09:44.564Z,83.60
2019-01-17T06:12:14.118Z,83.48
2019-01-17T06:14:43.905Z,83.63
2019-01-17T06:17:15.903Z,83.69
2019-01-17T06:19:45.862Z,83.71
2019-01-17T06:22:15.435Z,83.67
2019-01-17T06:24:45.370Z,83.60
2019-01-17T06:27:15.892Z,83.61
2019-01-17T06:29:45.992Z,83.48
2019-01-17T06:32:16.060Z,83.45
2019-01-17T06:34:47.814Z,83.51
2019-01-17T06:37:18.582Z,83.48
2019-01-17T06:39:48.110Z,83.33
2019-01-17T06:42:18.294Z,83.18
2019-01-17T06:44:48.140Z,83.14
2019-01-17T06:47:18.307Z,83.20
2019-01-17T06:49:47.806Z,83.17
2019-01-17T06:52:17.817Z,83.36
2019-01-17T06:54:47.964Z,83.43
2019-01-17T06:57:17.544Z,83.43
2019-01-17T06:59:47.094Z,83.18
2019-01-17T07:02:16.788Z,83.13
2019-01-17T07:04:46.311Z,83.14
2019-01-17T07:07:17.355Z,83.02
2019-01-17T07:09:46.888Z,82.94
2019-01-17T07:12:16.426Z,82.85
2019-01-17T07:14:45.956Z,82.79
2019-01-17T07:17:15.522Z,82.66
2019-01-17T07:19:45.057Z,82.55
2019-01-17T07:22:14.591Z,82.42
2019-01-17T07:24:45.654Z,82.30
2019-01-17T07:27:15.292Z,82.27
2019-01-17T07:29:44.819Z,82.36
2019-01-17T07:32:14.347Z,82.33
2019-01-17T07:34:43.881Z,82.20
2019-01-17T07:37:13.427Z,82.08
2019-01-17T07:39:43.200Z,82.06
2019-01-17T07:42:12.999Z,81.97
2019-01-17T07:44:42.523Z,82.12
2019-01-17T07:47:12.113Z,82.12
2019-01-17T07:49:41.660Z,82.11
2019-01-17T07:52:11.179Z,81.95
2019-01-17T07:54:45.540Z,81.79
2019-01-17T07:57:15.075Z,81.53
2019-01-17T07:59:44.843Z,81.40
2019-01-17T08:02:14.383Z,81.26
2019-01-17T08:04:43.928Z,81.25
2019-01-17T08:07:16.378Z,81.23
2019-01-17T08:09:46.188Z,81.23
2019-01-17T08:12:15.734Z,81.22
2019-01-17T08:14:45.294Z,81.35
2019-01-17T08:17:14.836Z,81.32
2019-01-17T08:19:44.372Z,81.26
2019-01-17T08:22:15.839Z,81.43
2019-01-17T08:24:45.354Z,81.38
2019-01-17T08:27:17.264Z,81.56
2019-01-17T08:29:46.779Z,81.45
2019-01-17T08:32:16.305Z,81.34
2019-01-17T08:34:45.871Z,81.17
2019-01-17T08:37:15.550Z,81.01
2019-01-17T08:39:45.075Z,80.81
2019-01-17T08:42:14.621Z,80.59
2019-01-17T08:44:44.145Z,80.41
2019-01-17T08:47:14.855Z,80.36
2019-01-17T08:49:45.756Z,80.18
2019-01-17T08:52:15.519Z,79.89
2019-01-17T08:54:45.045Z,79.64
2019-01-17T08:57:14.580Z,79.30
2019-01-17T08:59:44.110Z,79.19
2019-01-17T09:02:13.645Z,79.00
2019-01-17T09:04:43.193Z,78.97
2019-01-17T09:07:12.729Z,78.78
2019-01-17T09:09:42.262Z,78.41
2019-01-17T09:12:11.791Z,78.19
2019-01-17T09:14:41.304Z,78.14
2019-01-17T09:17:13.170Z,78.06
2019-01-17T09:19:42.676Z,77.80
2019-01-17T09:22:12.235Z,77.81
2019-01-17T09:24:42.206Z,78.02
2019-01-17T09:27:11.991Z,77.77
2019-01-17T09:29:41.521Z,77.53
2019-01-17T09:32:11.188Z,77.66
2019-01-17T09:34:40.730Z,77.66
2019-01-17T09:37:10.277Z,77.37
2019-01-17T09:39:39.815Z,77.33
2019-01-17T09:42:09.369Z,77.22
2019-01-17T09:44:38.889Z,77.13
2019-01-17T09:47:08.411Z,77.58
2019-01-17T09:49:37.951Z,77.24
2019-01-17T09:52:11.636Z,77.20
2019-01-17T09:54:41.194Z,77.13
2019-01-17T09:57:11.970Z,77.19
2019-01-17T09:59:43.061Z,77.21
2019-01-17T10:02:12.587Z,77.03
2019-01-17T10:04:42.127Z,76.76
2019-01-17T10:07:11.687Z,76.82
2019-01-17T10:09:41.462Z,76.62
2019-01-17T10:12:11.017Z,76.83
2019-01-17T10:14:40.590Z,76.78
2019-01-17T10:17:17.069Z,76.72
2019-01-17T10:19:45.454Z,76.91
2019-01-17T10:22:31.425Z,76.90
2019-01-17T10:25:12.742Z,76.76
2019-01-17T10:27:58.639Z,77.06
2019-01-17T10:30:58.453Z,77.14
2019-01-17T10:33:38.449Z,77.21
2019-01-17T10:36:21.146Z,77.40
2019-01-17T10:38:55.394Z,78.04
2019-01-17T10:41:32.422Z,78.93
2019-01-17T10:44:06.746Z,79.31
2019-01-17T10:47:07.634Z,79.80
2019-01-17T10:50:16.267Z,79.63
2019-01-17T10:53:01.898Z,80.21
2019-01-17T10:56:13.566Z,80.51
2019-01-17T10:58:53.563Z,81.01
2019-01-17T11:01:36.245Z,81.10
2019-01-17T11:04:19.063Z,80.98
2019-01-17T11:06:58.974Z,81.83
2019-01-17T11:09:49.377Z,82.40
2019-01-17T11:12:41.416Z,82.48
2019-01-17T11:15:33.932Z,82.28
2019-01-17T11:18:13.843Z,82.39
2019-01-17T11:21:19.265Z,82.65
2019-01-17T11:24:26.103Z,82.65
2019-01-17T11:27:15.299Z,83.26
2019-01-17T11:30:01.047Z,83.33
2019-01-17T11:32:38.085Z,83.09
2019-01-17T11:35:29.817Z,83.07
2019-01-17T11:38:15.872Z,82.94
2019-01-17T11:41:02.156Z,83.33
2019-01-17T11:43:54.379Z,83.16
2019-01-17T11:47:04.958Z,83.53
2019-01-17T11:50:02.991Z,83.22
2019-01-17T11:52:48.813Z,83.37
2019-01-17T11:55:44.105Z,83.63
2019-01-17T11:58:32.893Z,84.04
2019-01-17T12:01:26.509Z,84.22
2019-01-17T12:04:32.257Z,84.38
2019-01-17T12:07:06.235Z,84.13
2019-01-17T12:09:35.834Z,84.18
2019-01-17T12:12:06.006Z,84.44
2019-01-17T12:14:35.545Z,84.67
2019-01-17T12:17:05.156Z,84.47
2019-01-17T12:19:34.698Z,84.47
2019-01-17T12:22:05.541Z,84.28
2019-01-17T12:24:35.091Z,84.57
2019-01-17T12:27:04.637Z,84.54
2019-01-17T12:29:34.155Z,84.36
2019-01-17T12:32:03.693Z,84.76
2019-01-17T12:34:33.223Z,84.77
2019-01-17T12:37:02.752Z,84.76
2019-01-17T12:39:32.300Z,85.10
2019-01-17T12:42:01.829Z,84.91
2019-01-17T12:44:31.624Z,84.99
2019-01-17T12:47:01.162Z,85.06
2019-01-17T12:49:30.697Z,84.99
2019-01-17T12:52:00.249Z,85.29
2019-01-17T12:54:29.752Z,85.33
2019-01-17T12:56:59.287Z,85.14
2019-01-17T12:59:28.825Z,85.26
2019-01-17T13:01:58.771Z,85.16
2019-01-17T13:04:28.279Z,85.09
2019-01-17T13:06:57.805Z,85.29
2019-01-17T13:09:27.351Z,85.29
2019-01-17T13:11:56.885Z,85.41
2019-01-17T13:14:26.666Z,85.41
2019-01-17T13:16:56.191Z,85.25
2019-01-17T13:19:25.781Z,85.10
2019-01-17T13:21:55.299Z,85.16
2019-01-17T13:24:24.831Z,85.14
2019-01-17T13:27:00.585Z,85.03
2019-01-17T13:29:25.638Z,84.93
2019-01-17T13:31:58.743Z,84.87
2019-01-17T13:34:28.213Z,84.70
2019-01-17T13:36:57.754Z,84.96
2019-01-17T13:39:27.274Z,84.96
2019-01-17T13:41:56.832Z,85.52
2019-01-17T13:44:26.390Z,85.46
2019-01-17T13:46:55.935Z,85.74
2019-01-17T13:49:25.454Z,85.69
2019-01-17T13:51:55.002Z,85.55
2019-01-17T13:54:24.537Z,85.54
2019-01-17T13:56:55.834Z,85.46
2019-01-17T13:59:25.340Z,85.30
2019-01-17T14:01:54.881Z,85.08
2019-01-17T14:04:24.697Z,84.92
2019-01-17T14:06:54.224Z,84.64
2019-01-17T14:09:23.756Z,84.90
2019-01-17T14:11:53.306Z,84.89
2019-01-17T14:14:22.851Z,84.99
2019-01-17T14:16:52.425Z,85.77
2019-01-17T14:19:21.984Z,85.83
2019-01-17T14:21:51.527Z,85.99
2019-01-17T14:24:21.089Z,85.83
2019-01-17T14:26:50.603Z,85.56
2019-01-17T14:29:20.125Z,85.23
2019-01-17T14:31:49.792Z,85.44
2019-01-17T14:34:19.315Z,85.57
2019-01-17T14:36:48.825Z,85.77
2019-01-17T14:39:18.943Z,85.38
2019-01-17T14:41:48.480Z,85.38
2019-01-17T14:44:18.011Z,85.24
2019-01-17T14:46:47.767Z,85.03
2019-01-17T14:49:18.476Z,84.91
2019-01-17T14:51:48.083Z,84.66
2019-01-17T14:54:17.687Z,84.13
2019-01-17T14:56:47.226Z,84.00
2019-01-17T14:59:16.751Z,84.11
2019-01-17T15:01:46.291Z,84.19
2019-01-17T15:04:15.822Z,84.56
2019-01-17T15:06:45.382Z,84.42
2019-01-17T15:09:14.920Z,84.05
2019-01-17T15:11:44.450Z,83.65
2019-01-17T15:14:14.005Z,83.21
2019-01-17T15:16:43.549Z,82.97
2019-01-17T15:19:13.065Z,82.72
2019-01-17T15:21:42.618Z,82.62
2019-01-17T15:24:12.148Z,82.43
2019-01-17T15:26:41.723Z,82.31
2019-01-17T15:29:11.324Z,82.34
2019-01-17T15:31:40.840Z,82.37
2019-01-17T15:34:10.628Z,82.46
2019-01-17T15:36:40.148Z,82.60
2019-01-17T15:39:10.307Z,83.01
2019-01-17T15:41:39.824Z,82.59
2019-01-17T15:44:09.401Z,82.60
2019-01-17T15:46:39.057Z,82.62
2019-01-17T15:49:08.560Z,82.38
2019-01-17T15:51:38.093Z,82.46
2019-01-17T15:54:07.696Z,82.38
2019-01-17T15:56:37.264Z,82.18
2019-01-17T15:59:06.795Z,81.99
2019-01-17T16:01:36.334Z,81.82
2019-01-17T16:04:05.869Z,81.46
2019-01-17T16:06:35.429Z,81.32
2019-01-17T16:09:07.956Z,81.46
2019-01-17T16:11:37.572Z,81.21
2019-01-17T16:14:09.322Z,81.37
2019-01-17T16:16:39.274Z,81.11
2019-01-17T16:19:08.852Z,80.63
2019-01-17T16:21:38.438Z,80.54
2019-01-17T16:24:07.943Z,80.03
2019-01-17T16:26:37.488Z,80.32
2019-01-17T16:29:07.042Z,80.55
2019-01-17T16:31:36.647Z,80.67
2019-01-17T16:34:06.243Z,80.87
2019-01-17T16:36:35.789Z,81.11
2019-01-17T16:39:08.137Z,80.97
2019-01-17T16:41:37.682Z,80.84
2019-01-17T16:44:07.465Z,80.59
2019-01-17T16:46:36.994Z,80.49
2019-01-17T16:49:06.535Z,80.59
2019-01-17T16:51:36.186Z,80.54
2019-01-17T16:54:05.844Z,80.57
2019-01-17T16:56:35.377Z,80.54
2019-01-17T16:59:04.972Z,80.52
2019-01-17T17:01:34.506Z,80.63
2019-01-17T17:04:04.091Z,80.67
2019-01-17T17:06:33.862Z,80.74
2019-01-17T17:09:05.206Z,80.58
2019-01-17T17:11:34.735Z,80.46
2019-01-17T17:14:04.334Z,80.27
2019-01-17T17:16:33.873Z,80.03
2019-01-17T17:19:03.429Z,79.96
2019-01-17T17:21:32.954Z,79.72
2019-01-17T17:24:02.489Z,79.89
2019-01-17T17:26:32.072Z,79.96
2019-01-17T17:29:01.637Z,79.88
2019-01-17T17:31:31.152Z,79.78
2019-01-17T17:34:00.793Z,79.30
2019-01-17T17:36:30.313Z,79.60
2019-01-17T17:38:59.857Z,79.48
2019-01-17T17:41:29.391Z,79.20
2019-01-17T17:43:58.921Z,79.18
2019-01-17T17:46:30.011Z,79.29
2019-01-17T17:48:59.534Z,79.39
2019-01-17T17:51:29.355Z,79.58
2019-01-17T17:53:58.901Z,79.31
2019-01-17T17:56:28.482Z,79.17
2019-01-17T17:58:58.016Z,79.27
2019-01-17T18:01:28.011Z,79.35
2019-01-17T18:03:58.310Z,79.22
2019-01-17T18:06:27.802Z,79.65
2019-01-17T18:08:57.410Z,79.71
2019-01-17T18:11:26.969Z,79.75
2019-01-17T18:13:56.516Z,79.60
2019-01-17T18:16:26.046Z,79.45
2019-01-17T18:18:56.053Z,79.40
2019-01-17T18:21:25.605Z,79.48
2019-01-17T18:23:55.144Z,79.70
2019-01-17T18:26:25.213Z,79.69
2019-01-17T18:28:54.796Z,79.97
2019-01-17T18:31:27.411Z,79.78
2019-01-17T18:33:56.933Z,79.68
2019-01-17T18:36:26.447Z,79.90
2019-01-17T18:38:56.013Z,80.46
2019-01-17T18:41:25.543Z,80.56
2019-01-17T18:43:55.083Z,81.50
2019-01-17T18:46:24.746Z,81.78
2019-01-17T18:48:54.335Z,82.18
2019-01-17T18:51:24.059Z,82.17
2019-01-17T18:53:53.593Z,81.99
2019-01-17T18:56:23.487Z,82.44
2019-01-17T18:58:53.332Z,82.56
2019-01-17T19:01:23.281Z,83.21
2019-01-17T19:03:52.790Z,83.44
2019-01-17T19:07:31.541Z,84.19
2019-01-17T19:10:01.354Z,84.40
2019-01-17T19:12:30.976Z,84.48
2019-01-17T19:15:01.987Z,84.59
2019-01-17T19:17:31.841Z,84.34
2019-01-17T19:20:01.421Z,84.34
2019-01-17T19:22:31.424Z,84.53
2019-01-17T19:25:01.205Z,84.90
2019-01-17T19:27:31.150Z,84.87
2019-01-17T19:30:00.928Z,84.78
2019-01-17T19:32:30.700Z,84.64
2019-01-17T19:35:00.681Z,84.66
2019-01-17T19:37:30.498Z,84.52
2019-01-17T19:40:00.465Z,84.47
2019-01-17T19:42:35.436Z,84.30
2019-01-17T19:45:08.751Z,84.79
2019-01-17T19:47:40.951Z,84.78
2019-01-17T19:50:26.308Z,84.81
2019-01-17T19:52:56.405Z,84.77
2019-01-17T19:55:26.151Z,85.12
2019-01-17T19:57:56.100Z,85.04
2019-01-17T20:00:26.163Z,84.99
2019-01-17T20:02:55.740Z,84.96
2019-01-17T20:05:29.534Z,85.11
2019-01-17T20:07:59.286Z,85.27
2019-01-17T20:10:32.189Z,85.20
2019-01-17T20:13:02.271Z,85.03
2019-01-17T20:15:32.314Z,84.93
2019-01-17T20:18:01.909Z,84.76
2019-01-17T20:20:32.074Z,84.70
2019-01-17T20:23:02.768Z,84.55
2019-01-17T20:25:32.315Z,84.51
2019-01-17T20:28:01.847Z,84.59
2019-01-17T20:30:32.424Z,84.90
2019-01-17T20:33:02.682Z,84.86
2019-01-17T20:35:32.215Z,84.70
2019-01-17T20:38:01.791Z,84.63
2019-01-17T20:40:31.345Z,84.58
2019-01-17T20:43:04.319Z,84.51
2019-01-17T20:45:34.415Z,84.45
2019-01-17T20:48:04.027Z,84.47
2019-01-17T20:50:33.809Z,84.34
2019-01-17T20:53:03.363Z,84.36
2019-01-17T20:55:33.141Z,84.14
2019-01-17T20:58:02.679Z,84.26
2019-01-17T21:00:37.260Z,84.16
2019-01-17T21:03:09.904Z,84.15
2019-01-17T21:05:39.455Z,84.42
2019-01-17T21:08:09.031Z,84.32
2019-01-17T21:10:38.602Z,84.08
2019-01-17T21:13:08.383Z,83.98
2019-01-17T21:15:37.886Z,83.83
2019-01-17T21:18:07.425Z,83.90
2019-01-17T21:20:36.991Z,83.75
2019-01-17T21:23:06.519Z,83.59
2019-01-17T21:25:36.040Z,83.42
2019-01-17T21:28:05.583Z,83.43
2019-01-17T21:30:35.127Z,83.32
2019-01-17T21:33:07.083Z,83.25
2019-01-17T21:35:35.951Z,83.14
2019-01-17T21:38:05.548Z,82.98
2019-01-17T21:40:35.086Z,82.76
2019-01-17T21:43:04.710Z,83.01
2019-01-17T21:45:34.250Z,83.07
2019-01-17T21:48:04.067Z,83.07
2019-01-17T21:50:33.736Z,83.13
2019-01-17T21:53:03.288Z,82.98
2019-01-17T21:55:33.101Z,82.81
2019-01-17T21:58:02.620Z,82.72
2019-01-17T22:00:32.154Z,82.53
2019-01-17T22:03:01.679Z,82.41
2019-01-17T22:05:31.217Z,82.30
2019-01-17T22:08:00.742Z,82.74
2019-01-17T22:10:30.282Z,82.77
2019-01-17T22:12:59.836Z,82.83
2019-01-17T22:15:29.631Z,82.70
2019-01-17T22:17:59.188Z,82.58
2019-01-17T22:20:28.731Z,82.51
2019-01-17T22:22:58.281Z,82.63
2019-01-17T22:25:27.813Z,82.48
2019-01-17T22:27:57.338Z,82.42
2019-01-17T22:30:30.881Z,82.35
2019-01-17T22:33:00.683Z,82.39
2019-01-17T22:35:33.698Z,82.26
2019-01-17T22:38:03.208Z,82.13
2019-01-17T22:40:32.764Z,81.90
2019-01-17T22:43:02.351Z,81.90
2019-01-17T22:45:32.800Z,81.78
2019-01-17T22:48:02.343Z,81.53
2019-01-17T22:50:31.916Z,82.10
2019-01-17T22:53:01.442Z,82.08
2019-01-17T22:55:30.985Z,81.93
2019-01-17T22:58:00.525Z,81.77
2019-01-17T23:00:49.211Z,81.72
2019-01-17T23:03:20.967Z,82.13
2019-01-17T23:05:50.909Z,82.27
2019-01-17T23:08:20.459Z,82.23
2019-01-17T23:10:50.004Z,81.93
2019-01-17T23:13:19.535Z,81.67
2019-01-17T23:15:49.069Z,81.99
2019-01-17T23:18:18.632Z,82.02
2019-01-17T23:20:48.158Z,82.05
2019-01-17T23:23:17.785Z,82.06
2019-01-17T23:25:47.326Z,81.89
2019-01-17T23:28:16.850Z,81.89
2019-01-17T23:30:46.434Z,81.97
2019-01-17T23:33:15.983Z,81.83
2019-01-17T23:35:47.111Z,81.72
2019-01-17T23:38:18.838Z,81.59
2019-01-17T23:40:48.355Z,81.76
2019-01-17T23:43:17.911Z,81.84
2019-01-17T23:45:47.466Z,81.92
2019-01-17T23:48:17.009Z,81.77
2019-01-17T23:50:46.544Z,81.71
2019-01-17T23:53:16.097Z,81.52
2019-01-17T23:55:45.641Z,81.49
2019-01-17T23:58:15.207Z,81.46
